Time;durP1;ratioP1;P1;durP2;ratioP2;P2;SDS_P1;SDS_P2;PMS_P1;PMS_P2;Temp;Humidity;BMP_temperature;BMP_pressure;BME280_temperature;BME280_humidity;BME280_pressure;Samples;Min_cycle;Max_cycle;Signal;HPM_P1;HPM_P2
2023/01/11 00:00:46;;;;;;;4.35;2.03;;;;;;;13.31;64.81;100620.28;6181391;23;20096;-66
2023/01/11 00:03:13;;;;;;;3.28;1.60;;;;;;;13.34;65.21;100616.47;6181525;23;20522;-67
2023/01/11 00:05:41;;;;;;;4.85;1.90;;;;;;;13.35;64.80;100620.88;6182243;23;20021;-67
2023/01/11 00:08:08;;;;;;;2.85;1.92;;;;;;;13.39;64.93;100616.94;6182280;23;20339;-66
2023/01/11 00:10:35;;;;;;;2.83;1.95;;;;;;;13.42;64.73;100626.63;6181892;23;20461;-66
2023/01/11 00:13:02;;;;;;;3.20;2.00;;;;;;;13.44;65.00;100617.41;6182024;23;20021;-67
2023/01/11 00:15:29;;;;;;;2.53;1.60;;;;;;;13.47;64.92;100621.69;6181842;23;20044;-66
2023/01/11 00:17:56;;;;;;;2.97;1.90;;;;;;;13.50;64.72;100621.41;6182211;23;20086;-66
2023/01/11 00:20:23;;;;;;;4.50;2.10;;;;;;;13.51;65.16;100610.50;6181698;22;20052;-66
2023/01/11 00:22:50;;;;;;;4.03;2.55;;;;;;;13.54;64.79;100614.75;6181704;23;20013;-66
2023/01/11 00:25:16;;;;;;;8.07;2.50;;;;;;;13.55;64.64;100613.78;6181853;23;20023;-66
2023/01/11 00:27:43;;;;;;;4.82;1.75;;;;;;;13.57;64.57;100604.56;6181885;23;20435;-65
2023/01/11 00:30:10;;;;;;;4.65;2.10;;;;;;;13.58;64.94;100595.47;6182338;23;20059;-66
2023/01/11 00:32:37;;;;;;;2.53;1.60;;;;;;;13.61;64.83;100592.50;6181740;23;20016;-67
2023/01/11 00:35:03;;;;;;;4.60;1.60;;;;;;;13.61;65.04;100591.66;6182004;23;20017;-66
2023/01/11 00:37:30;;;;;;;2.53;1.42;;;;;;;13.63;65.12;100592.38;6181621;23;20020;-66
2023/01/11 00:39:56;;;;;;;1.88;1.42;;;;;;;13.66;64.96;100584.00;6182155;23;20025;-66
2023/01/11 00:47:56;;;;;;;2.72;1.50;;;;;;;13.76;64.64;100578.66;6181790;23;20017;-66
2023/01/11 00:50:24;;;;;;;3.05;1.40;;;;;;;13.76;64.65;100579.50;6181775;23;20024;-66
2023/01/11 00:52:51;;;;;;;2.45;1.20;;;;;;;13.78;64.75;100585.63;6155235;23;20074;-66
2023/01/11 00:55:17;;;;;;;2.70;1.40;;;;;;;13.79;64.88;100581.94;6182039;23;20021;-65
2023/01/11 00:57:44;;;;;;;2.15;1.20;;;;;;;13.84;64.56;100576.13;6181743;23;20559;-66
2023/01/11 01:00:11;;;;;;;2.22;1.50;;;;;;;13.85;64.63;100580.53;6182519;23;20021;-66
2023/01/11 01:02:38;;;;;;;4.03;1.35;;;;;;;13.87;64.95;100565.91;6181375;23;20443;-66
2023/01/11 01:05:05;;;;;;;2.03;1.73;;;;;;;13.89;64.91;100572.03;6155661;23;20021;-66
2023/01/11 01:07:32;;;;;;;2.75;1.42;;;;;;;13.91;64.97;100563.78;6181733;23;20013;-66
2023/01/11 01:09:58;;;;;;;2.25;1.80;;;;;;;13.94;64.90;100568.91;6181746;23;20017;-66
2023/01/11 01:15:10;;;;;;;1.73;1.33;;;;;;;13.96;64.95;100561.53;6181952;23;20374;-66
2023/01/11 01:17:37;;;;;;;2.47;1.33;;;;;;;13.96;64.68;100573.19;6181953;23;20015;-66
2023/01/11 01:20:04;;;;;;;3.10;1.58;;;;;;;13.95;65.14;100571.47;6181635;23;20040;-66
2023/01/11 01:22:31;;;;;;;1.88;1.70;;;;;;;13.96;65.08;100564.22;6155104;23;20017;-66
2023/01/11 01:24:57;;;;;;;2.45;1.52;;;;;;;13.96;64.77;100573.19;6181641;23;20024;-66
2023/01/11 01:27:24;;;;;;;2.03;1.55;;;;;;;13.97;64.82;100569.50;6181584;23;20050;-66
2023/01/11 01:29:51;;;;;;;2.33;1.85;;;;;;;13.98;65.14;100570.34;6181764;23;20013;-66
2023/01/11 01:32:17;;;;;;;3.15;1.70;;;;;;;14.01;65.22;100575.47;6181211;23;20040;-67
2023/01/11 01:34:44;;;;;;;2.97;2.00;;;;;;;14.02;65.30;100570.94;6181736;23;20059;-66
2023/01/11 01:37:14;;;;;;;3.28;1.60;;;;;;;14.04;65.38;100579.75;6181326;23;20505;-66
2023/01/11 01:39:41;;;;;;;4.03;1.63;;;;;;;14.05;65.06;100576.06;6181412;23;20092;-66
2023/01/11 01:42:15;;;;;;;2.22;1.77;;;;;;;14.05;65.22;100576.91;6180751;22;20454;-66
2023/01/11 01:44:55;;;;;;;3.28;1.90;;;;;;;14.06;65.32;100578.59;6181011;23;20451;-66
2023/01/11 01:47:29;;;;;;;2.97;1.55;;;;;;;14.08;65.26;100582.03;6181394;23;20041;-66
2023/01/11 01:50:00;;;;;;;4.20;1.83;;;;;;;14.07;65.21;100574.91;6181489;23;20100;-67
2023/01/11 01:52:28;;;;;;;3.53;1.70;;;;;;;14.09;65.22;100572.06;6181431;23;20021;-66
2023/01/11 01:54:59;;;;;;;2.50;1.65;;;;;;;14.07;65.67;100574.91;6181160;23;20044;-66
2023/01/11 01:57:30;;;;;;;3.13;1.85;;;;;;;14.06;65.81;100565.09;6154739;23;20439;-66
2023/01/11 02:00:00;;;;;;;3.83;1.80;;;;;;;14.06;65.65;100573.22;6181222;23;20018;-67
2023/01/11 02:02:28;;;;;;;3.42;1.55;;;;;;;14.06;65.68;100565.09;6155238;22;20039;-66
2023/01/11 02:04:56;;;;;;;1.50;1.20;;;;;;;14.09;65.87;100566.69;6181061;22;20031;-66
2023/01/11 02:07:31;;;;;;;3.65;1.67;;;;;;;14.09;66.01;100563.97;6155102;23;20440;-66
2023/01/11 02:10:01;;;;;;;;;;;;;;;14.15;65.88;100579.66;6181480;23;20017;-67
2023/01/11 02:12:33;;;;;;;1.83;1.50;;;;;;;14.16;65.65;100565.16;6181297;22;19916;-66
2023/01/11 02:15:01;;;;;;;1.30;1.20;;;;;;;14.14;65.60;100565.31;6181086;23;20066;-66
2023/01/11 02:17:28;;;;;;;2.53;1.30;;;;;;;14.12;65.78;100563.69;6181101;22;20047;-66
2023/01/11 02:19:58;;;;;;;1.60;1.38;;;;;;;14.12;66.13;100566.41;6181076;23;20447;-66
2023/01/11 02:22:40;;;;;;;2.67;1.63;;;;;;;14.13;66.05;100562.75;6181114;23;20025;-66
2023/01/11 02:25:20;;;;;;;2.35;1.38;;;;;;;14.12;65.81;100561.88;6182451;23;20451;-66
2023/01/11 02:28:06;;;;;;;3.00;1.20;;;;;;;14.13;66.04;100558.19;6182485;22;20012;-66
2023/01/11 02:30:45;;;;;;;2.90;1.40;;;;;;;14.16;66.08;100563.31;6182845;23;20085;-65
2023/01/11 02:33:41;;;;;;;1.98;1.50;;;;;;;14.15;65.84;100558.91;6155811;23;20039;-66
2023/01/11 02:36:47;;;;;;;2.08;1.30;;;;;;;14.20;66.13;100547.69;6182715;23;20017;-66
2023/01/11 02:39:32;;;;;;;3.90;1.42;;;;;;;14.21;66.01;100552.94;6183482;23;20075;-66
2023/01/11 02:45:11;;;;;;;1.30;1.20;;;;;;;14.24;66.01;100544.56;6182893;23;20486;-67
2023/01/11 02:48:01;;;;;;;3.05;1.92;;;;;;;14.24;66.06;100541.00;6182365;23;20013;-66
2023/01/11 02:51:02;;;;;;;2.20;1.45;;;;;;;14.26;66.01;100536.31;6182226;23;20017;-67
2023/01/11 02:53:46;;;;;;;2.42;1.20;;;;;;;14.27;66.42;100541.59;6182530;23;20017;-66
2023/01/11 02:56:18;;;;;;;1.50;1.40;;;;;;;14.31;66.38;100542.16;6182455;23;20100;-66
2023/01/11 02:58:49;;;;;;;1.88;1.20;;;;;;;14.30;65.97;100543.16;6182290;23;20032;-65
2023/01/11 03:01:17;;;;;;;3.72;1.20;;;;;;;14.31;65.95;100539.47;6182229;23;20066;-66
2023/01/11 03:03:44;;;;;;;1.33;1.15;;;;;;;14.31;66.44;100536.75;6182022;23;20024;-66
2023/01/11 03:06:23;;;;;;;1.33;1.10;;;;;;;14.31;66.24;100531.34;6155953;23;20020;-66
2023/01/11 03:09:11;;;;;;;2.55;1.20;;;;;;;14.34;66.55;100524.81;6182627;23;20014;-66
2023/01/11 03:15:42;;;;;;;1.25;1.13;;;;;;;14.39;66.21;100531.50;6182156;23;20458;-66
2023/01/11 03:18:27;;;;;;;1.25;1.10;;;;;;;14.41;66.17;100524.13;6167339;23;20017;-66
2023/01/11 03:21:22;;;;;;;1.13;1.03;;;;;;;14.39;66.31;100523.41;6182276;23;20058;-66
2023/01/11 03:24:04;;;;;;;1.30;1.13;;;;;;;14.41;66.33;100521.41;6181695;23;20443;-66
2023/01/11 03:26:31;;;;;;;2.00;1.30;;;;;;;14.43;66.40;100518.59;6181953;23;20017;-66
2023/01/11 03:29:25;;;;;;;2.10;1.20;;;;;;;14.42;66.73;100523.16;6182114;23;20013;-67
2023/01/11 03:32:03;;;;;;;1.83;1.27;;;;;;;14.45;66.71;100524.72;6182330;23;20024;-66
2023/01/11 03:34:46;;;;;;;2.10;1.25;;;;;;;14.46;66.67;100535.38;6182079;23;20447;-65
2023/01/11 03:37:25;;;;;;;1.45;1.30;;;;;;;14.48;66.55;100525.28;6182373;23;20021;-65
2023/01/11 03:40:02;;;;;;;1.05;1.02;;;;;;;14.49;66.85;100518.03;6181828;23;20075;-66
2023/01/11 03:42:32;;;;;;;1.45;1.33;;;;;;;14.50;66.61;100522.44;6182081;23;20015;-66
2023/01/11 03:45:01;;;;;;;1.50;1.30;;;;;;;14.52;66.72;100526.69;6182158;23;20013;-66
2023/01/11 03:47:29;;;;;;;6.10;2.33;;;;;;;14.55;66.33;100537.22;6182089;23;20335;-66
2023/01/11 03:50:05;;;;;;;1.20;1.10;;;;;;;14.57;66.52;100534.38;6182366;23;20020;-66
2023/01/11 03:52:37;;;;;;;1.48;1.20;;;;;;;14.59;66.23;100524.28;6182109;23;20063;-65
2023/01/11 03:55:08;;;;;;;1.85;1.20;;;;;;;14.58;66.83;100534.25;6182108;23;20021;-66
2023/01/11 03:57:41;;;;;;;1.20;1.05;;;;;;;14.58;66.54;100528.84;6181861;23;20058;-66
2023/01/11 04:00:08;;;;;;;1.20;1.10;;;;;;;14.60;66.75;100545.75;6182430;23;20017;-65
2023/01/11 04:02:39;;;;;;;2.97;1.20;;;;;;;14.60;66.32;100540.34;6181660;23;20017;-65
2023/01/11 04:05:07;;;;;;;1.45;1.15;;;;;;;14.60;66.65;100534.09;6182456;22;20048;-66
2023/01/11 04:07:34;;;;;;;1.23;1.10;;;;;;;14.62;66.71;100538.38;6181799;23;20021;-66
2023/01/11 04:10:01;;;;;;;1.15;1.05;;;;;;;14.63;66.66;100540.06;6181937;23;20017;-66
2023/01/11 04:12:28;;;;;;;3.13;1.00;;;;;;;14.64;66.92;100540.94;6181712;23;20436;-66
2023/01/11 04:14:54;;;;;;;1.83;1.02;;;;;;;14.66;66.60;100543.50;6181842;23;20439;-65
2023/01/11 04:17:21;;;;;;;2.38;1.02;;;;;;;14.68;66.66;100541.50;6181818;23;20022;-66
2023/01/11 04:19:47;;;;;;;1.08;0.88;;;;;;;14.69;66.45;100537.78;6182212;23;20063;-66
2023/01/11 04:22:14;;;;;;;1.13;0.80;;;;;;;14.71;66.61;100541.22;6181748;23;20020;-66
2023/01/11 04:24:40;;;;;;;1.00;0.70;;;;;;;14.74;66.71;100551.75;6181835;23;20513;-66
2023/01/11 04:27:07;;;;;;;1.95;1.00;;;;;;;14.74;66.55;100551.75;6181815;23;20096;-66
2023/01/11 04:29:34;;;;;;;1.00;0.80;;;;;;;14.73;66.83;100544.63;6181884;23;20021;-66
2023/01/11 04:32:00;;;;;;;1.30;1.00;;;;;;;14.73;66.93;100547.31;6181826;23;20025;-66
2023/01/11 04:34:27;;;;;;;0.95;0.90;;;;;;;14.75;66.72;100540.78;6182173;23;20017;-66
2023/01/11 04:36:53;;;;;;;1.05;0.90;;;;;;;14.77;66.42;100540.63;6181677;23;20020;-66
2023/01/11 04:39:20;;;;;;;0.80;0.80;;;;;;;14.76;66.94;100545.19;6181786;23;20021;-66
2023/01/11 04:44:31;;;;;;;1.42;0.95;;;;;;;14.79;66.50;100544.06;6181797;23;20017;-65
2023/01/11 04:46:58;;;;;;;1.20;1.10;;;;;;;14.80;66.96;100556.56;6181104;23;20021;-67
2023/01/11 04:49:24;;;;;;;1.23;1.10;;;;;;;14.80;66.67;100548.47;6181856;23;20074;-66
2023/01/11 04:51:51;;;;;;;1.52;1.40;;;;;;;14.81;66.47;100560.97;6181526;23;20017;-66
2023/01/11 04:54:17;;;;;;;1.85;1.27;;;;;;;14.82;66.95;100559.97;6181787;23;20017;-65
2023/01/11 04:56:44;;;;;;;1.67;1.58;;;;;;;14.83;66.83;100559.84;6181977;23;20074;-66
2023/01/11 04:59:10;;;;;;;1.92;1.55;;;;;;;14.85;66.76;100548.88;6182107;23;20017;-66
2023/01/11 05:01:37;;;;;;;1.60;1.50;;;;;;;14.85;67.20;100555.16;6181389;22;20062;-66
2023/01/11 05:04:03;;;;;;;1.63;1.52;;;;;;;14.86;66.92;100554.19;6181593;23;20040;-66
2023/01/11 05:06:30;;;;;;;3.05;1.45;;;;;;;14.89;66.94;100561.16;6181214;22;20350;-66
2023/01/11 05:08:56;;;;;;;1.75;1.60;;;;;;;14.90;67.01;100568.25;6181917;23;20024;-66
2023/01/11 05:11:23;;;;;;;2.00;1.80;;;;;;;14.92;67.20;100563.56;6181356;23;20092;-66
2023/01/11 05:13:50;;;;;;;1.77;1.67;;;;;;;14.94;67.23;100564.28;6181448;23;20037;-66
2023/01/11 05:16:19;;;;;;;2.17;1.98;;;;;;;14.96;67.23;100575.81;6181347;23;20025;-66
2023/01/11 05:18:54;;;;;;;2.50;1.85;;;;;;;14.99;67.26;100570.09;6181346;23;20443;-65
2023/01/11 05:21:22;;;;;;;;;;;;;;;15.04;67.19;100570.53;6182077;22;20066;-66
2023/01/11 05:23:49;;;;;;;1.95;1.77;;;;;;;15.08;67.00;100571.09;6181779;23;19922;-66
2023/01/11 05:26:21;;;;;;;2.20;1.52;;;;;;;15.07;67.35;100572.09;6181554;23;20032;-66
2023/01/11 05:28:49;;;;;;;3.47;1.80;;;;;;;15.08;67.20;100573.78;6181853;23;20092;-66
2023/01/11 05:31:15;;;;;;;1.70;1.60;;;;;;;15.07;67.29;100575.66;6181590;23;20017;-66
2023/01/11 05:33:43;;;;;;;1.67;1.58;;;;;;;15.08;67.08;100585.47;6181130;23;20017;-66
2023/01/11 05:36:12;;;;;;;2.58;2.10;;;;;;;15.09;67.09;100589.88;6181423;23;20017;-66
2023/01/11 05:38:39;;;;;;;2.97;2.17;;;;;;;15.12;67.12;100584.19;6181857;23;20108;-66
2023/01/11 05:41:08;;;;;;;2.78;2.20;;;;;;;15.14;67.32;100598.41;6181808;23;20074;-66
2023/01/11 05:46:21;;;;;;;;;;;;;;;15.20;66.84;100596.97;6181496;23;20013;-66
2023/01/11 05:48:48;;;;;;;2.70;2.47;;;;;;;15.23;66.84;100588.56;6181328;23;20384;-65
2023/01/11 05:51:15;;;;;;;4.05;3.65;;;;;;;15.20;67.01;100587.00;6181344;23;20100;-66
2023/01/11 05:53:42;;;;;;;3.75;3.00;;;;;;;15.18;67.13;100586.31;6181278;23;20017;-66
2023/01/11 05:56:09;;;;;;;3.80;3.50;;;;;;;15.17;66.99;100591.84;6181226;22;20017;-65
2023/01/11 05:58:35;;;;;;;4.93;3.83;;;;;;;15.16;66.96;100587.44;6181715;22;20017;-66
2023/01/11 06:01:02;;;;;;;7.90;4.78;;;;;;;15.14;66.71;100590.28;6183014;23;20020;-65
2023/01/11 06:03:29;;;;;;;8.40;4.20;;;;;;;15.13;66.89;100583.19;6190741;23;20023;-67
2023/01/11 06:05:58;;;;;;;5.60;4.25;;;;;;;15.13;67.03;100594.00;6182637;23;20036;-65
2023/01/11 06:08:25;;;;;;;5.97;5.18;;;;;;;15.13;67.24;100590.44;6182838;23;20092;-67
2023/01/11 06:10:53;;;;;;;6.95;5.18;;;;;;;15.12;67.03;100584.19;6182949;22;20017;-66
2023/01/11 06:13:27;;;;;;;8.98;5.50;;;;;;;15.12;67.10;100584.19;6182470;23;20020;-66
2023/01/11 06:16:00;;;;;;;8.70;5.80;;;;;;;15.11;66.77;100590.59;6182064;23;20021;-66
2023/01/11 06:18:28;;;;;;;8.80;5.85;;;;;;;15.10;66.67;100594.28;6182479;23;20014;-65
2023/01/11 06:20:56;;;;;;;8.98;6.63;;;;;;;15.09;66.77;100602.53;6182522;23;20385;-65
2023/01/11 06:23:23;;;;;;;10.40;6.40;;;;;;;15.08;66.77;100615.22;6182048;23;20432;-65
2023/01/11 06:25:50;;;;;;;7.72;6.28;;;;;;;15.07;66.88;100601.84;6182626;22;20052;-66
2023/01/11 06:28:17;;;;;;;10.55;6.55;;;;;;;15.07;66.89;100609.94;6182297;23;20017;-67
2023/01/11 06:30:49;;;;;;;12.70;6.72;;;;;;;15.05;67.12;100618.22;6156468;23;20339;-66
2023/01/11 06:33:16;;;;;;;11.57;6.78;;;;;;;15.06;66.85;100628.03;6182121;23;20013;-66
2023/01/11 06:35:42;;;;;;;11.52;6.15;;;;;;;15.06;67.08;100632.59;6182352;23;20013;-66
2023/01/11 06:38:12;;;;;;;12.35;7.35;;;;;;;15.06;66.88;100638.84;6182008;23;20084;-66
2023/01/11 06:40:39;;;;;;;12.95;5.18;;;;;;;15.05;67.08;100647.97;6182267;23;20088;-66
2023/01/11 06:43:07;;;;;;;12.25;4.50;;;;;;;15.03;66.76;100649.09;6182086;23;20397;-66
2023/01/11 06:45:37;;;;;;;21.48;5.03;;;;;;;14.99;66.42;100659.34;6182032;23;20047;-66
2023/01/11 06:48:04;;;;;;;11.82;4.20;;;;;;;14.96;66.64;100665.03;6182489;22;20013;-65
2023/01/11 06:50:31;;;;;;;13.10;3.90;;;;;;;14.91;66.47;100680.84;6156153;23;20017;-66
2023/01/11 06:53:00;;;;;;;12.77;4.00;;;;;;;14.87;65.98;100684.81;6182018;23;20017;-66
2023/01/11 06:55:28;;;;;;;19.40;3.72;;;;;;;14.81;65.92;100683.50;6181991;22;20025;-66
2023/01/11 06:57:54;;;;;;;16.38;4.10;;;;;;;14.79;65.70;100692.75;6182291;23;20138;-66
2023/01/11 07:00:21;;;;;;;13.80;3.65;;;;;;;14.72;65.98;100686.19;6182495;23;20370;-66
2023/01/11 07:02:48;;;;;;;16.30;4.10;;;;;;;14.68;65.52;100672.09;6180597;23;20013;-66
2023/01/11 07:05:15;;;;;;;18.55;4.05;;;;;;;14.66;65.43;100689.44;6180240;23;20070;-65
2023/01/11 07:07:44;;;;;;;18.85;4.68;;;;;;;14.62;65.21;100703.22;6180552;23;20024;-66
2023/01/11 07:10:14;;;;;;;16.80;3.70;;;;;;;14.58;65.59;100720.72;6180035;23;20013;-66
2023/01/11 07:12:41;;;;;;;16.75;3.55;;;;;;;14.55;65.58;100712.88;6179970;23;20017;-66
2023/01/11 07:15:09;;;;;;;13.45;3.25;;;;;;;14.53;65.26;100711.31;6180523;23;20074;-66
2023/01/11 07:17:36;;;;;;;13.50;3.70;;;;;;;14.49;65.32;100713.44;6180374;23;20017;-66
2023/01/11 07:20:04;;;;;;;17.45;3.47;;;;;;;14.47;65.37;100701.91;6180393;23;20084;-67
2023/01/11 07:22:35;;;;;;;16.38;3.80;;;;;;;14.45;64.97;100709.31;6180311;23;20021;-66
2023/01/11 07:25:03;;;;;;;11.90;3.78;;;;;;;14.44;64.81;100704.88;6180276;23;20027;-67
2023/01/11 07:27:29;;;;;;;14.85;3.95;;;;;;;14.39;65.10;100717.91;6180325;23;20093;-65
2023/01/11 07:29:58;;;;;;;14.95;4.45;;;;;;;14.35;65.10;100724.59;6180410;23;20022;-66
2023/01/11 07:32:26;;;;;;;16.52;4.90;;;;;;;14.32;65.04;100719.47;6180452;23;20014;-65
2023/01/11 07:34:54;;;;;;;20.13;5.15;;;;;;;14.28;64.88;100729.69;6180270;23;20096;-66
2023/01/11 07:37:21;;;;;;;13.65;3.80;;;;;;;14.29;64.73;100757.56;6180584;23;20066;-66
2023/01/11 07:39:54;;;;;;;14.80;4.13;;;;;;;14.26;65.10;100752.41;6179971;23;20014;-66
2023/01/11 07:45:07;;;;;;;15.10;3.72;;;;;;;14.23;64.57;100750.84;6180507;23;20009;-66
2023/01/11 07:47:33;;;;;;;19.05;4.45;;;;;;;14.22;64.89;100751.84;6180287;23;20021;-66
2023/01/11 07:50:00;;;;;;;19.35;4.57;;;;;;;14.21;64.79;100749.25;6153822;23;20025;-66
2023/01/11 07:52:27;;;;;;;16.92;3.92;;;;;;;14.19;64.54;100765.59;6153454;23;20049;-66
2023/01/11 07:54:53;;;;;;;14.90;4.07;;;;;;;14.18;64.58;100765.75;6153934;23;20017;-68
2023/01/11 07:57:20;;;;;;;15.63;4.35;;;;;;;14.16;64.35;100768.56;6179459;22;20380;-69
2023/01/11 07:59:47;;;;;;;20.30;4.18;;;;;;;14.14;64.25;100775.97;6180272;23;20025;-68
2023/01/11 08:02:14;;;;;;;18.15;4.47;;;;;;;14.13;64.16;100768.00;6134959;22;1072837;-67
2023/01/11 08:04:40;;;;;;;17.52;4.57;;;;;;;14.11;64.26;100794.25;6182158;23;20009;-68
2023/01/11 08:07:07;;;;;;;14.75;4.00;;;;;;;14.11;64.24;100799.63;6181919;23;20091;-69
2023/01/11 08:09:34;;;;;;;18.95;4.18;;;;;;;14.10;64.17;100812.28;6181969;23;20017;-68
2023/01/11 08:14:45;;;;;;;21.02;5.10;;;;;;;14.09;64.48;100817.81;6182057;23;20017;-68
2023/01/11 08:17:14;;;;;;;15.60;4.05;;;;;;;14.07;64.51;100817.09;6182008;23;20024;-69
2023/01/11 08:19:41;;;;;;;20.10;4.20;;;;;;;14.05;64.34;100822.63;6181992;23;20024;-68
2023/01/11 08:22:08;;;;;;;17.42;4.07;;;;;;;14.04;64.00;100829.03;6181185;23;20335;-68
2023/01/11 08:24:35;;;;;;;16.67;4.20;;;;;;;14.02;64.27;100824.75;6182267;23;20377;-68
2023/01/11 08:27:03;;;;;;;17.92;3.78;;;;;;;13.98;63.99;100838.50;6181789;23;20017;-68
2023/01/11 08:29:30;;;;;;;13.90;3.67;;;;;;;13.96;63.77;100850.41;6155616;23;20017;-67
2023/01/11 08:31:58;;;;;;;24.23;3.97;;;;;;;13.94;64.07;100845.16;6181474;23;20116;-67
2023/01/11 08:34:26;;;;;;;13.60;4.10;;;;;;;13.94;64.21;100860.50;6181830;22;20474;-67
2023/01/11 08:36:55;;;;;;;18.25;4.45;;;;;;;13.93;63.93;100861.47;6181602;23;20043;-76
2023/01/11 08:39:23;;;;;;;20.13;5.00;;;;;;;13.92;64.17;100874.13;6155362;23;20096;-75
2023/01/11 08:41:49;;;;;;;20.38;4.53;;;;;;;13.92;63.68;100882.22;6154911;22;20017;-75
2023/01/11 08:44:16;;;;;;;25.23;5.18;;;;;;;13.90;63.96;100870.69;6183749;23;20037;-77
2023/01/11 08:46:59;;;;;;;18.02;4.75;;;;;;;13.89;63.80;100873.53;6155587;23;20025;-76
2023/01/11 08:49:26;;;;;;;15.60;4.25;;;;;;;13.87;63.66;100891.69;6181747;23;20039;-76
2023/01/11 08:51:52;;;;;;;18.38;3.75;;;;;;;13.85;63.92;100881.03;6155681;23;20032;-77
2023/01/11 08:54:19;;;;;;;14.07;3.80;;;;;;;13.84;63.69;100883.84;6154794;23;20439;-77
2023/01/11 08:56:46;;;;;;;18.70;4.43;;;;;;;13.83;63.63;100882.16;6152546;23;20017;-76
2023/01/11 08:59:13;;;;;;;28.65;5.55;;;;;;;13.84;63.79;100892.81;6178484;23;20435;-77
2023/01/11 09:01:39;;;;;;;24.10;4.20;;;;;;;13.83;63.52;100888.41;6178962;23;20028;-76
2023/01/11 09:04:06;;;;;;;18.42;5.00;;;;;;;13.85;63.68;100901.75;6152821;23;20024;-72
2023/01/11 09:06:50;;;;;;;26.15;4.68;;;;;;;13.84;63.56;100900.91;6179534;23;20084;-73
2023/01/11 09:09:17;;;;;;;23.55;4.75;;;;;;;13.87;63.42;100903.34;6179813;23;20021;-69
2023/01/11 09:11:56;;;;;;;23.90;4.72;;;;;;;13.88;63.37;100915.88;6180933;22;20088;-70
2023/01/11 09:14:24;;;;;;;16.20;4.38;;;;;;;13.88;63.58;100918.56;6181411;23;20017;-70
2023/01/11 09:16:52;;;;;;;20.65;4.45;;;;;;;13.88;63.74;100905.06;6181231;23;20021;-71
2023/01/11 09:19:19;;;;;;;30.00;5.75;;;;;;;13.88;63.25;100905.06;6181596;23;20047;-70
2023/01/11 09:21:46;;;;;;;30.13;5.38;;;;;;;13.89;63.45;100914.03;6181481;23;20502;-70
2023/01/11 09:24:13;;;;;;;25.05;5.95;;;;;;;13.87;63.17;100914.16;6181797;23;20316;-70
2023/01/11 09:26:42;;;;;;;33.15;6.00;;;;;;;13.85;63.65;100915.25;6153359;22;20024;-71
2023/01/11 09:29:10;;;;;;;28.02;5.97;;;;;;;13.83;63.01;100912.69;6154986;23;20351;-70
2023/01/11 09:31:37;;;;;;;35.40;7.75;;;;;;;13.82;63.08;100913.69;6180785;23;20020;-71
2023/01/11 09:34:05;;;;;;;26.38;5.65;;;;;;;13.80;63.23;100918.34;6181761;23;20089;-70
2023/01/11 09:36:34;;;;;;;21.25;5.18;;;;;;;13.76;63.20;100925.00;6181184;23;20058;-70
2023/01/11 09:39:06;;;;;;;26.35;5.78;;;;;;;13.74;63.39;100926.09;6180600;23;20015;-70
2023/01/11 09:41:59;;;;;;;24.50;6.10;;;;;;;13.70;63.25;100933.59;6181326;23;20020;-70
2023/01/11 09:44:28;;;;;;;31.77;5.85;;;;;;;13.69;63.30;100931.88;6181427;23;20088;-71
2023/01/11 09:47:16;;;;;;;27.60;5.30;;;;;;;13.64;63.29;100939.50;6181018;23;20443;-70
2023/01/11 09:49:48;;;;;;;19.85;4.85;;;;;;;13.62;62.89;100946.88;6181204;23;20096;-70
2023/01/11 09:52:23;;;;;;;16.05;3.47;;;;;;;13.56;63.04;100944.66;6180999;23;20096;-70
2023/01/11 09:54:50;;;;;;;19.17;4.22;;;;;;;13.54;63.17;100952.03;6180984;23;20514;-71
2023/01/11 09:57:25;;;;;;;14.02;3.60;;;;;;;13.49;62.99;100951.56;6180993;23;20086;-72
2023/01/11 10:00:13;;;;;;;14.23;3.67;;;;;;;13.49;63.18;100951.56;6181315;23;20024;-71
2023/01/11 10:03:07;;;;;;;13.48;3.20;;;;;;;13.50;63.01;100961.34;6181013;23;20072;-70
2023/01/11 10:05:48;;;;;;;16.13;3.85;;;;;;;13.52;63.12;100954.84;6180930;23;20321;-70
2023/01/11 10:08:38;;;;;;;145.57;27.48;;;;;;;13.54;63.02;100954.72;6181171;23;20013;-71
2023/01/11 10:11:51;;;;;;;82.40;15.05;;;;;;;13.57;63.33;100959.88;6181248;23;20014;-70
2023/01/11 10:15:03;;;;;;;46.88;10.20;;;;;;;13.60;63.40;100959.63;6181288;23;20021;-70
2023/01/11 10:18:12;;;;;;;31.23;5.95;;;;;;;13.65;63.38;100960.09;6180445;22;20021;-70
2023/01/11 10:21:12;;;;;;;20.75;4.90;;;;;;;13.74;63.46;100955.78;6180958;23;20459;-70
2023/01/11 10:23:49;;;;;;;24.40;6.57;;;;;;;13.80;63.17;100953.44;6180524;23;20353;-70
2023/01/11 10:26:26;;;;;;;271.45;47.55;;;;;;;13.89;63.23;100966.19;6180668;23;20013;-70
2023/01/11 10:34:48;;;;;;;302.58;57.40;;;;;;;14.22;63.12;100969.78;6180785;23;20087;-69
2023/01/11 10:43:03;;;;;;;53.83;11.65;;;;;;;14.52;63.08;100969.91;6180543;23;20013;-70
2023/01/11 10:45:39;;;;;;;34.05;7.03;;;;;;;14.58;62.63;100966.66;6181808;23;20021;-70
2023/01/11 10:48:13;;;;;;;27.13;6.20;;;;;;;14.67;62.94;100964.16;6181894;23;20042;-71
2023/01/11 10:51:09;;;;;;;59.88;12.77;;;;;;;14.75;62.50;100965.22;6182449;23;20103;-70
2023/01/11 10:53:54;;;;;;;21.92;4.80;;;;;;;14.88;62.66;100968.59;6181703;23;20017;-71
2023/01/11 10:56:35;;;;;;;63.15;13.85;;;;;;;15.01;62.05;100970.22;6181705;23;20058;-71
2023/01/11 10:59:38;;;;;;;18.67;4.68;;;;;;;15.13;62.03;100970.00;6182758;23;20032;-71
2023/01/11 11:02:10;;;;;;;18.55;4.18;;;;;;;15.23;62.27;100970.91;6180980;23;20096;-72
2023/01/11 11:04:55;;;;;;;14.85;5.13;;;;;;;15.32;62.05;100963.81;6182046;23;20013;-72
2023/01/11 11:07:33;;;;;;;16.83;4.20;;;;;;;15.38;61.73;100967.81;6182208;23;20403;-71
2023/01/11 11:10:13;;;;;;;14.35;3.70;;;;;;;15.42;60.98;100970.13;6181974;23;20025;-71
2023/01/11 11:12:52;;;;;;;16.80;4.55;;;;;;;15.46;60.90;100959.88;6182173;23;20023;-71
2023/01/11 11:15:31;;;;;;;77.60;14.93;;;;;;;15.50;61.01;100970.28;6181580;23;20030;-72
2023/01/11 11:17:58;;;;;;;17.33;4.38;;;;;;;15.54;60.83;100968.16;6155700;23;20021;-70
2023/01/11 11:20:31;;;;;;;18.40;4.18;;;;;;;15.60;60.72;100964.06;6182285;23;20495;-70
2023/01/11 11:22:58;;;;;;;20.30;4.10;;;;;;;15.63;60.49;100967.38;6181471;22;20096;-70
2023/01/11 11:25:38;;;;;;;17.13;4.50;;;;;;;15.66;60.13;100964.41;6181655;23;20017;-70
2023/01/11 11:28:13;;;;;;;16.30;5.32;;;;;;;15.69;59.89;100969.53;6180276;23;20021;-70
2023/01/11 11:30:45;;;;;;;15.48;4.57;;;;;;;15.70;59.97;100970.41;6179501;23;20039;-70
2023/01/11 11:33:23;;;;;;;18.77;4.15;;;;;;;15.72;59.38;100979.22;6153130;22;20080;-70
2023/01/11 11:36:00;;;;;;;27.15;5.88;;;;;;;15.75;59.26;100977.09;6179270;23;20369;-70
2023/01/11 11:38:29;;;;;;;19.95;4.82;;;;;;;15.80;59.59;100979.41;6179360;23;20076;-70
2023/01/11 11:41:05;;;;;;;16.33;5.82;;;;;;;15.83;59.29;100979.97;6153505;23;20016;-70
2023/01/11 11:43:33;;;;;;;15.45;4.20;;;;;;;15.87;59.05;100981.41;6154741;23;20017;-70
2023/01/11 11:46:18;;;;;;;19.17;4.47;;;;;;;15.90;59.09;100985.69;6181464;23;20025;-70
2023/01/11 11:49:07;;;;;;;16.63;4.60;;;;;;;15.93;58.95;100990.81;6181884;23;20021;-70
2023/01/11 11:51:33;;;;;;;17.85;4.28;;;;;;;15.92;58.81;100996.38;6181874;23;20316;-70
2023/01/11 11:54:00;;;;;;;20.05;5.85;;;;;;;15.91;58.52;100997.38;6181723;23;20021;-70
2023/01/11 11:56:33;;;;;;;15.70;4.55;;;;;;;15.87;58.48;100989.53;6180852;23;20020;-69
2023/01/11 11:59:08;;;;;;;18.27;3.95;;;;;;;15.87;58.26;100992.25;6181695;23;20040;-70
2023/01/11 12:01:45;;;;;;;14.38;3.80;;;;;;;15.90;58.11;100996.53;6181844;23;20017;-69
2023/01/11 12:04:19;;;;;;;13.70;4.53;;;;;;;15.89;58.43;100994.81;6182084;23;20017;-70
2023/01/11 12:07:02;;;;;;;11.82;3.70;;;;;;;15.89;57.70;100994.81;6181864;23;20021;-70
2023/01/11 12:09:31;;;;;;;13.18;3.70;;;;;;;15.87;57.61;100996.81;6181778;23;20485;-69
2023/01/11 12:11:59;;;;;;;15.55;3.80;;;;;;;15.87;57.90;100991.38;6181574;23;20102;-70
2023/01/11 12:14:29;;;;;;;13.70;4.22;;;;;;;15.87;57.74;100991.38;6181637;23;20458;-70
2023/01/11 12:16:57;;;;;;;17.77;4.47;;;;;;;15.86;57.56;100995.09;6181069;23;20113;-70
2023/01/11 12:19:27;;;;;;;12.23;3.80;;;;;;;15.83;57.34;100992.66;6181646;22;20040;-70